Time;durP1;ratioP1;P1;durP2;ratioP2;P2;SDS_P1;SDS_P2;PMS_P1;PMS_P2;Temp;Humidity;BMP_temperature;BMP_pressure;BME280_temperature;BME280_humidity;BME280_pressure;Samples;Min_cycle;Max_cycle;Signal;HPM_P1;HPM_P2
2022/05/25 00:05:09;;;;;;;;;;;;;;;;;;;;;
2022/05/25 00:08:15;;;;;;;;;;;;;;;;;;;;;
2022/05/25 00:14:19;;;;;;;6.72;1.15;;;;;;;7.03;88.66;99998.56;6014275;23;20053;-77
2022/05/25 00:17:40;;;;;;;1.63;0.77;;;;;;;7.08;88.38;100021.22;6150283;23;19996;-76
2022/05/25 00:21:03;;;;;;;5.07;1.08;;;;;;;7.21;87.94;100036.31;6141038;23;20005;-76
2022/05/25 00:23:29;;;;;;;2.28;0.88;;;;;;;7.06;88.61;100007.03;6136852;23;20005;-76
2022/05/25 00:26:37;;;;;;;2.90;1.00;;;;;;;7.37;89.00;100055.53;6255485;22;20082;-76
2022/05/25 00:29:39;;;;;;;;;;;;;;;;;;;;;
2022/05/25 00:35:49;;;;;;;4.53;1.05;;;;;;;7.26;88.55;100028.22;6277310;22;20038;-74
2022/05/25 00:38:20;;;;;;;3.85;1.00;;;;;;;7.38;88.13;100047.13;6255835;22;20022;-76
2022/05/25 00:41:30;;;;;;;3.90;1.25;;;;;;;7.41;87.99;100051.25;6257658;22;20011;-77
2022/05/25 00:44:19;;;;;;;1.45;0.60;;;;;;;7.34;87.83;100062.31;6255719;22;20003;-77
2022/05/25 00:47:31;;;;;;;3.75;1.05;;;;;;;7.29;88.19;100059.53;6241166;22;20050;-76
2022/05/25 00:57:43;;;;;;;4.55;1.10;;;;;;;7.34;87.60;100062.31;6046554;22;20010;-78
2022/05/25 01:00:29;;;;;;;6.38;1.10;;;;;;;7.32;88.69;100048.16;6284348;22;20431;-76
2022/05/25 01:03:04;;;;;;;4.15;1.33;;;;;;;7.34;87.79;100046.81;6235234;22;20034;-77
2022/05/25 01:05:37;;;;;;;2.85;1.10;;;;;;;7.25;88.37;100021.13;6256120;22;20014;-76
2022/05/25 01:08:08;;;;;;;4.80;1.35;;;;;;;7.38;88.63;100040.88;6282060;22;19997;-77
2022/05/25 01:10:37;;;;;;;2.85;1.30;;;;;;;7.37;87.37;100041.94;6257006;22;20014;-76
2022/05/25 01:13:20;;;;;;;4.30;1.20;;;;;;;7.33;88.14;100037.00;6254013;22;20181;-76
2022/05/25 01:16:00;;;;;;;6.05;1.23;;;;;;;7.22;87.47;100020.81;6256367;22;20443;-76
2022/05/25 01:18:52;;;;;;;5.82;1.58;;;;;;;7.33;87.18;100038.91;6257705;22;20063;-75
2022/05/25 01:21:48;;;;;;;5.18;1.50;;;;;;;7.29;87.92;100024.19;6257897;22;20003;-76
2022/05/25 01:24:37;;;;;;;1.38;1.08;;;;;;;7.32;87.52;100029.09;6256803;22;19995;-77
2022/05/25 01:27:38;;;;;;;4.85;1.02;;;;;;;7.46;87.00;100048.56;6237640;22;20095;-78
2022/05/25 01:38:38;;;;;;;;;;;;;;;;;;;;;
2022/05/25 01:41:13;;;;;;;4.40;1.67;;;;;;;7.37;86.67;100033.78;6321833;22;20023;-74
2022/05/25 01:43:57;;;;;;;3.00;1.40;;;;;;;7.37;86.72;100034.59;6319584;22;19995;-74
2022/05/25 01:47:23;;;;;;;;;;;;;;;;;;;;;
2022/05/25 01:50:34;;;;;;;3.05;0.98;;;;;;;7.71;86.27;100049.94;6316604;22;20027;-73
2022/05/25 01:53:02;;;;;;;1.65;0.95;;;;;;;7.86;86.87;100041.94;6285780;22;20072;-75
2022/05/25 01:56:04;;;;;;;1.95;0.77;;;;;;;7.87;86.62;100043.59;6320774;22;20003;-74
2022/05/25 01:58:36;;;;;;;1.13;0.65;;;;;;;7.96;86.54;100035.78;6295854;22;20074;-73
2022/05/25 02:01:07;;;;;;;3.45;1.00;;;;;;;8.01;85.33;100039.34;6292846;22;20007;-73
2022/05/25 02:06:37;;;;;;;2.15;0.80;;;;;;;8.10;85.31;100047.84;6295873;22;20022;-75
2022/05/25 02:09:08;;;;;;;1.85;0.80;;;;;;;8.08;85.45;100039.13;6293473;22;20015;-75
2022/05/25 02:11:41;;;;;;;3.00;0.90;;;;;;;8.08;84.81;100044.59;6294830;22;20003;-76
2022/05/25 02:14:26;;;;;;;3.50;0.70;;;;;;;8.06;85.02;100045.91;6292528;22;20007;-75
2022/05/25 02:17:06;;;;;;;3.67;1.00;;;;;;;8.15;84.99;100049.81;6296453;22;20007;-75
2022/05/25 02:19:40;;;;;;;6.28;0.80;;;;;;;8.13;85.11;100047.38;6294468;22;20010;-75
2022/05/25 02:22:21;;;;;;;1.05;0.55;;;;;;;8.20;85.48;100042.50;6295983;22;20011;-76
2022/05/25 02:25:33;;;;;;;2.50;0.73;;;;;;;8.29;84.83;100050.19;6322587;22;20098;-76
2022/05/25 02:28:26;;;;;;;0.93;0.43;;;;;;;8.27;84.62;100041.47;6321398;22;20014;-77
2022/05/25 02:30:56;;;;;;;2.40;0.75;;;;;;;8.31;84.99;100053.47;6296329;22;20417;-77
2022/05/25 02:33:37;;;;;;;1.48;0.60;;;;;;;8.26;84.74;100045.28;6320622;22;20325;-76
2022/05/25 02:36:06;;;;;;;5.63;0.60;;;;;;;8.26;83.96;100039.81;6306555;22;20017;-74
2022/05/25 02:38:36;;;;;;;1.55;0.70;;;;;;;8.21;83.86;100027.00;6257843;23;20008;-75
2022/05/25 02:41:09;;;;;;;5.20;0.65;;;;;;;8.30;84.06;100035.50;6255021;23;20007;-76
2022/05/25 02:43:39;;;;;;;2.22;1.33;;;;;;;8.33;83.53;100040.44;6255941;23;20014;-76
2022/05/25 02:46:09;;;;;;;2.05;0.80;;;;;;;8.30;83.26;100040.97;6258313;23;19988;-76
2022/05/25 02:48:36;;;;;;;0.93;0.40;;;;;;;8.31;83.58;100037.13;6231662;23;20035;-77
2022/05/25 02:51:02;;;;;;;1.30;0.40;;;;;;;8.26;83.29;100035.19;6257543;23;20016;-76
2022/05/25 02:53:28;;;;;;;1.65;0.63;;;;;;;8.25;83.14;100030.00;6254704;23;19984;-77
2022/05/25 02:55:55;;;;;;;0.40;0.40;;;;;;;8.12;83.96;100018.47;6253773;22;19996;-76
2022/05/25 02:58:24;;;;;;;0.65;0.43;;;;;;;8.11;83.52;100030.44;6204600;23;20016;-73
2022/05/25 03:00:49;;;;;;;1.42;0.47;;;;;;;8.12;83.91;100034.81;6225252;23;20008;-74
2022/05/25 03:03:18;;;;;;;3.65;0.80;;;;;;;8.05;83.85;100017.88;6254716;23;20003;-74
2022/05/25 03:08:36;;;;;;;;;;;;;;;;;;;;;
2022/05/25 03:19:11;;;;;;;1.25;0.68;;;;;;;7.59;87.02;99998.38;6097421;23;20042;-73
2022/05/25 03:22:44;;;;;;;;;;;;;;;;;;;;;
2022/05/25 03:29:14;;;;;;;;;;;;;;;;;;;;;
2022/05/25 03:35:44;;;;;;;4.47;0.70;;;;;;;7.86;88.39;100011.97;5989175;24;20015;-73
2022/05/25 03:45:54;;;;;;;;;;;;;;;;;;;;;
2022/05/25 03:49:07;;;;;;;6.60;1.08;;;;;;;8.36;87.45;100034.47;6101268;23;20038;-73
2022/05/25 03:55:01;;;;;;;2.00;0.65;;;;;;;8.25;87.38;100016.38;5995418;23;20015;-75
2022/05/25 03:57:55;;;;;;;;;;;;;;;;;;;;;
2022/05/25 04:01:19;;;;;;;4.93;0.65;;;;;;;8.29;88.19;100039.31;6017952;23;20027;-74
2022/05/25 04:04:38;;;;;;;;;;;;;;;;;;;;;
2022/05/25 04:08:00;;;;;;;;;;;;;;;;;;;;;
2022/05/25 04:11:28;;;;;;;3.03;0.70;;;;;;;8.18;89.24;100033.78;6189430;23;20048;-74
2022/05/25 04:14:36;;;;;;;;;;;;;;;;;;;;;
2022/05/25 04:20:41;;;;;;;;;;;;;;;;;;;;;
2022/05/25 04:23:57;;;;;;;5.63;0.55;;;;;;;8.49;88.12;100050.38;6187259;23;20113;-72
2022/05/25 04:26:23;;;;;;;3.40;0.55;;;;;;;8.52;87.78;100049.88;6135889;23;20005;-73
2022/05/25 04:28:49;;;;;;;5.25;0.77;;;;;;;8.55;87.39;100035.72;6140117;23;20013;-73
2022/05/25 04:31:16;;;;;;;3.25;0.82;;;;;;;8.69;87.36;100052.44;6139798;23;20072;-74
2022/05/25 04:33:42;;;;;;;5.88;0.70;;;;;;;8.74;86.99;100047.00;6163083;23;20324;-72
2022/05/25 04:36:07;;;;;;;7.82;1.15;;;;;;;8.76;87.00;100038.59;6163280;23;20013;-72
2022/05/25 04:38:34;;;;;;;5.50;0.98;;;;;;;8.89;87.16;100048.19;6204580;22;19995;-72
2022/05/25 04:41:01;;;;;;;5.18;0.90;;;;;;;8.90;86.65;100031.56;6228719;22;20012;-73
2022/05/25 04:43:27;;;;;;;2.28;0.65;;;;;;;9.12;86.85;100063.31;6231396;22;20716;-73
2022/05/25 04:45:54;;;;;;;5.80;1.25;;;;;;;9.11;86.25;100045.31;6203262;22;20018;-73
2022/05/25 04:48:23;;;;;;;3.13;0.80;;;;;;;9.22;86.36;100062.56;6254862;22;20016;-71
2022/05/25 04:50:50;;;;;;;8.60;0.90;;;;;;;9.20;86.76;100049.19;6253043;22;20042;-72
2022/05/25 04:53:18;;;;;;;4.78;0.77;;;;;;;9.24;86.48;100049.44;6230160;22;20007;-73
2022/05/25 04:58:30;;;;;;;;;;;;;;;9.36;86.20;100060.13;6264281;22;20030;-73
2022/05/25 05:00:56;;;;;;;1.95;0.77;;;;;;;9.37;85.69;100059.06;6258470;22;19891;-72
2022/05/25 05:03:24;;;;;;;4.45;0.85;;;;;;;9.43;85.17;100056.09;6233429;22;20015;-75
2022/05/25 05:05:51;;;;;;;5.22;0.90;;;;;;;9.51;84.54;100060.22;6258477;22;20004;-74
2022/05/25 05:08:18;;;;;;;2.58;0.60;;;;;;;9.65;84.70;100063.28;6227567;23;20044;-76
2022/05/25 05:10:44;;;;;;;4.28;0.52;;;;;;;9.73;84.31;100068.19;6228867;23;20062;-74
2022/05/25 05:13:10;;;;;;;3.20;0.98;;;;;;;9.77;83.89;100058.38;6253413;23;20004;-75
2022/05/25 05:15:37;;;;;;;6.82;0.80;;;;;;;9.86;83.48;100055.94;6228105;23;20011;-76
2022/05/25 05:18:04;;;;;;;6.25;1.10;;;;;;;9.98;83.38;100046.69;6254643;23;20098;-77
2022/05/25 05:20:31;;;;;;;2.15;0.57;;;;;;;10.12;82.77;100053.25;6204968;23;20489;-76
2022/05/25 05:22:57;;;;;;;3.95;0.98;;;;;;;10.19;82.51;100048.34;6204353;23;19995;-76
2022/05/25 05:25:23;;;;;;;9.02;1.08;;;;;;;10.28;82.01;100048.63;6253823;23;20004;-76
2022/05/25 05:27:50;;;;;;;0.57;0.50;;;;;;;10.35;81.83;100045.63;6255925;22;20008;-75
2022/05/25 05:30:19;;;;;;;6.30;1.00;;;;;;;10.42;81.63;100049.72;6233453;23;20016;-76
2022/05/25 05:32:47;;;;;;;6.25;1.00;;;;;;;10.54;81.61;100065.88;6255277;23;20062;-75
2022/05/25 05:35:15;;;;;;;3.83;0.75;;;;;;;10.54;81.70;100060.38;6237671;23;20013;-73
2022/05/25 05:37:50;;;;;;;6.70;1.38;;;;;;;10.61;81.93;100049.97;6260740;22;19996;-74
2022/05/25 05:40:16;;;;;;;;;;;;;;;10.69;81.82;100056.81;6252167;23;20000;-75
2022/05/25 05:42:54;;;;;;;4.57;0.93;;;;;;;10.69;81.60;100045.03;6251631;23;20287;-74
2022/05/25 05:45:27;;;;;;;6.38;1.00;;;;;;;10.72;81.65;100041.75;6253993;22;20087;-74
2022/05/25 05:47:58;;;;;;;13.27;1.50;;;;;;;10.74;81.42;100036.84;6252149;23;20007;-74
2022/05/25 05:50:25;;;;;;;14.50;1.50;;;;;;;10.83;81.43;100030.53;6252661;23;20062;-73
2022/05/25 05:52:52;;;;;;;13.50;0.85;;;;;;;11.10;81.19;100047.69;6225724;23;20095;-76
2022/05/25 05:55:18;;;;;;;8.27;1.70;;;;;;;11.14;81.15;100046.00;6252885;23;20012;-75
2022/05/25 05:57:44;;;;;;;6.40;1.45;;;;;;;11.08;81.74;100047.97;6253908;23;19984;-75
2022/05/25 06:00:13;;;;;;;8.57;1.00;;;;;;;11.13;81.02;100061.63;6226666;23;20012;-75
2022/05/25 06:02:38;;;;;;;6.30;1.27;;;;;;;11.17;81.26;100067.38;6226016;23;20018;-75
2022/05/25 06:05:04;;;;;;;7.70;1.30;;;;;;;11.18;81.25;100082.69;6253821;22;20027;-74
2022/05/25 06:07:30;;;;;;;8.45;0.93;;;;;;;11.17;81.23;100067.38;6232986;22;20035;-74
2022/05/25 06:09:56;;;;;;;4.43;1.13;;;;;;;11.19;81.64;100081.59;6232687;22;20063;-73
2022/05/25 06:12:23;;;;;;;5.57;1.20;;;;;;;11.20;80.96;100075.03;6234014;22;20019;-75
2022/05/25 06:14:49;;;;;;;8.88;1.20;;;;;;;11.19;81.41;100065.16;6256361;22;20063;-75
2022/05/25 06:19:59;;;;;;;9.02;1.30;;;;;;;11.21;81.16;100079.38;6243266;22;20061;-73
2022/05/25 06:22:26;;;;;;;15.95;1.30;;;;;;;11.29;81.40;100095.25;6259560;22;20004;-74
2022/05/25 06:24:52;;;;;;;9.60;1.10;;;;;;;11.34;81.06;100083.44;6232438;22;20014;-75
2022/05/25 06:27:20;;;;;;;8.07;1.65;;;;;;;11.37;81.20;100087.56;6260290;22;20004;-75
2022/05/25 06:29:48;;;;;;;8.07;1.00;;;;;;;11.38;81.36;100083.72;6258466;22;19999;-76
2022/05/25 06:32:18;;;;;;;8.95;1.42;;;;;;;11.44;80.72;100094.38;6259567;22;20093;-74
2022/05/25 06:34:48;;;;;;;6.65;1.27;;;;;;;11.39;81.24;100086.19;6235417;22;20065;-75
2022/05/25 06:37:20;;;;;;;8.23;1.05;;;;;;;11.38;82.05;100078.25;6256947;22;20007;-74
2022/05/25 06:39:46;;;;;;;7.43;1.55;;;;;;;11.37;81.92;100077.41;6233591;22;20019;-74
2022/05/25 06:42:12;;;;;;;11.52;1.67;;;;;;;11.41;81.74;100089.44;6230336;22;20022;-74
2022/05/25 06:44:39;;;;;;;13.13;2.10;;;;;;;11.39;81.53;100079.88;6257096;22;20315;-74
2022/05/25 06:47:05;;;;;;;6.32;1.10;;;;;;;11.40;81.82;100085.06;6256160;22;20023;-73
2022/05/25 06:49:32;;;;;;;4.97;1.02;;;;;;;11.49;82.14;100085.31;6232332;22;20011;-73
2022/05/25 06:51:58;;;;;;;7.32;1.42;;;;;;;11.51;82.11;100088.59;6208678;22;20104;-73
2022/05/25 06:54:24;;;;;;;5.55;1.10;;;;;;;11.49;83.63;100101.72;6233556;22;20011;-74
2022/05/25 06:56:51;;;;;;;12.93;1.33;;;;;;;11.37;83.69;100093.03;6233190;22;20014;-75
2022/05/25 06:59:17;;;;;;;5.40;1.10;;;;;;;11.29;84.36;100097.97;6231910;22;20012;-73
2022/05/25 07:01:43;;;;;;;4.28;0.85;;;;;;;11.17;85.66;100094.75;6255685;22;20011;-75
2022/05/25 07:04:10;;;;;;;11.27;1.65;;;;;;;11.11;86.96;100112.25;6232510;22;20431;-75
2022/05/25 07:06:38;;;;;;;16.17;1.27;;;;;;;10.96;87.64;100086.56;6257673;22;20006;-75
2022/05/25 07:09:05;;;;;;;13.23;1.55;;;;;;;10.93;87.95;100089.84;6256396;22;20022;-75
2022/05/25 07:11:31;;;;;;;5.45;1.02;;;;;;;11.03;88.11;100088.22;6229879;22;19992;-75
2022/05/25 07:13:59;;;;;;;11.80;1.67;;;;;;;11.15;87.55;100107.88;6284356;22;20008;-75
2022/05/25 07:16:26;;;;;;;8.27;1.38;;;;;;;11.15;86.91;100086.78;6257326;22;20083;-75
2022/05/25 07:18:52;;;;;;;8.18;1.27;;;;;;;11.17;86.87;100102.97;6254887;22;19992;-75
2022/05/25 07:21:27;;;;;;;16.17;1.90;;;;;;;11.23;86.81;100088.16;6231051;22;20011;-75
2022/05/25 07:23:55;;;;;;;11.15;1.73;;;;;;;11.35;86.68;100091.38;6256210;22;20022;-74
2022/05/25 07:26:22;;;;;;;5.75;1.10;;;;;;;11.55;86.05;100099.78;6283479;22;20007;-74
2022/05/25 07:28:48;;;;;;;7.00;0.88;;;;;;;11.68;85.09;100105.50;6257030;22;20006;-76
2022/05/25 07:31:27;;;;;;;5.88;1.55;;;;;;;11.89;84.32;100094.44;6256165;22;20054;-75
2022/05/25 07:34:10;;;;;;;9.75;1.60;;;;;;;12.01;83.58;100091.38;6255134;22;20000;-75
2022/05/25 07:36:36;;;;;;;12.07;1.35;;;;;;;12.09;82.96;100095.44;6257371;22;19987;-74
2022/05/25 07:39:05;;;;;;;9.27;1.20;;;;;;;12.13;83.23;100094.56;6257058;22;20008;-75
2022/05/25 07:41:35;;;;;;;15.07;1.40;;;;;;;12.21;81.99;100101.41;6255985;22;20091;-73
2022/05/25 07:44:01;;;;;;;9.73;1.45;;;;;;;12.28;81.76;100099.16;6207409;22;20004;-74
2022/05/25 07:46:29;;;;;;;7.32;1.13;;;;;;;12.19;82.64;100109.06;6277701;22;20378;-75
2022/05/25 07:48:55;;;;;;;10.05;1.35;;;;;;;12.16;83.69;100107.72;6252229;22;20038;-75
2022/05/25 07:51:24;;;;;;;8.50;1.70;;;;;;;12.07;83.89;100094.91;6255706;22;20430;-74
2022/05/25 07:53:56;;;;;;;13.20;2.92;;;;;;;12.13;84.15;100094.56;6282020;22;20018;-72
2022/05/25 07:56:26;;;;;;;7.50;1.58;;;;;;;12.22;82.60;100103.00;6257293;22;20326;-74
2022/05/25 07:58:54;;;;;;;9.52;1.52;;;;;;;12.36;82.55;100100.44;6282005;22;20053;-76
2022/05/25 08:05:43;;;;;;;13.13;1.88;;;;;;;12.39;81.71;100095.19;6230008;22;20031;-74
2022/05/25 08:06:56;;;;;;;9.60;1.65;;;;;;;12.12;84.72;100097.59;6258870;22;20023;-74
2022/05/25 08:09:22;;;;;;;5.38;1.25;;;;;;;11.97;86.35;100102.09;6249405;23;20016;-75
2022/05/25 08:11:48;;;;;;;5.72;1.10;;;;;;;11.77;87.76;100102.16;6226520;23;20054;-75
2022/05/25 08:14:14;;;;;;;10.35;1.13;;;;;;;11.61;89.46;100094.03;6251205;23;20787;-75
2022/05/25 08:16:39;;;;;;;5.65;1.45;;;;;;;11.50;89.61;100103.38;6227251;23;20008;-74
2022/05/25 08:19:05;;;;;;;7.90;1.63;;;;;;;11.41;91.48;100083.16;6251669;23;20001;-74
2022/05/25 08:21:30;;;;;;;13.43;1.75;;;;;;;11.32;92.12;100086.47;6202730;23;20004;-73
2022/05/25 08:23:56;;;;;;;11.88;2.95;;;;;;;11.32;93.35;100089.22;6224070;23;19996;-74
2022/05/25 08:26:21;;;;;;;12.20;1.17;;;;;;;11.38;94.32;100091.94;6252420;23;20364;-74
2022/05/25 08:28:47;;;;;;;8.90;1.00;;;;;;;11.33;93.76;100099.06;6251109;23;20004;-73
2022/05/25 08:31:12;;;;;;;12.90;1.50;;;;;;;11.27;95.21;100094.72;6224293;23;20046;-74
2022/05/25 08:33:38;;;;;;;10.95;1.58;;;;;;;11.27;95.42;100100.19;6251410;22;20054;-73
2022/05/25 08:36:03;;;;;;;9.98;1.25;;;;;;;11.30;96.29;100116.06;6248493;23;20035;-73
2022/05/25 08:38:29;;;;;;;8.88;1.02;;;;;;;11.47;96.31;100104.75;6247822;23;20343;-73
2022/05/25 08:40:55;;;;;;;7.00;1.73;;;;;;;11.53;96.45;100094.59;6220731;23;20007;-73
2022/05/25 08:43:39;;;;;;;6.95;1.05;;;;;;;11.56;95.95;100128.81;6246577;23;20028;-73
2022/05/25 08:46:06;;;;;;;7.25;2.20;;;;;;;11.59;95.94;100089.91;6246019;23;20007;-74
2022/05/25 08:48:33;;;;;;;7.80;1.45;;;;;;;11.63;95.26;100080.06;6247335;23;20415;-73
2022/05/25 08:51:04;;;;;;;6.47;0.88;;;;;;;11.74;95.12;100097.25;6245562;23;20128;-74
2022/05/25 08:53:30;;;;;;;6.90;1.15;;;;;;;12.02;94.24;100114.94;6248970;22;20008;-73
2022/05/25 08:55:59;;;;;;;6.03;1.30;;;;;;;12.18;93.06;100083.59;6245895;23;20393;-74
2022/05/25 08:58:38;;;;;;;10.40;1.65;;;;;;;12.32;92.64;100075.50;6245532;23;20000;-74
2022/05/25 09:01:06;;;;;;;7.07;1.25;;;;;;;12.46;91.02;100085.84;6242858;23;20415;-73
2022/05/25 09:03:48;;;;;;;14.85;1.58;;;;;;;12.48;90.53;100078.16;6243583;23;20000;-73
2022/05/25 09:06:22;;;;;;;4.97;0.93;;;;;;;12.66;89.55;100112.28;6243007;23;20019;-73
2022/05/25 09:08:59;;;;;;;4.80;0.70;;;;;;;12.84;88.27;100103.34;6266892;22;20114;-71
2022/05/25 09:11:38;;;;;;;4.47;0.85;;;;;;;12.96;88.04;100097.44;6249114;22;20050;-73
2022/05/25 09:14:37;;;;;;;2.80;0.80;;;;;;;13.21;86.27;100088.13;6275090;22;20011;-73
2022/05/25 09:17:09;;;;;;;2.78;0.65;;;;;;;13.40;86.22;100085.47;6227671;22;20015;-73
2022/05/25 09:19:39;;;;;;;6.18;1.10;;;;;;;13.41;85.43;100084.34;6278750;22;20004;-73
2022/05/25 09:22:10;;;;;;;5.47;1.15;;;;;;;13.38;84.95;100095.94;6251799;22;20002;-73
2022/05/25 09:24:37;;;;;;;8.65;1.15;;;;;;;13.35;86.11;100090.22;6251091;22;20372;-74
2022/05/25 09:27:05;;;;;;;7.32;0.88;;;;;;;13.51;86.15;100099.09;6251171;22;20718;-73
2022/05/25 09:29:31;;;;;;;1.33;0.50;;;;;;;13.71;84.34;100087.84;6279713;22;20418;-74
2022/05/25 09:32:05;;;;;;;3.45;0.75;;;;;;;13.69;82.47;100087.28;6252993;22;20007;-73
2022/05/25 09:34:36;;;;;;;5.60;1.10;;;;;;;13.78;82.62;100093.78;6252044;22;20007;-73
2022/05/25 09:37:44;;;;;;;8.82;1.08;;;;;;;13.94;81.34;100096.31;6252237;22;20034;-74
2022/05/25 09:40:38;;;;;;;3.95;0.73;;;;;;;14.30;80.56;100093.03;6207641;22;20010;-74
2022/05/25 09:43:08;;;;;;;4.03;0.90;;;;;;;14.51;79.07;100099.00;6252160;22;19999;-74
2022/05/25 09:46:07;;;;;;;7.97;1.02;;;;;;;14.61;78.04;100081.53;6252146;22;20000;-74
2022/05/25 09:48:59;;;;;;;5.05;0.80;;;;;;;14.61;76.50;100087.03;6244721;22;20003;-74
2022/05/25 09:51:33;;;;;;;2.90;0.60;;;;;;;14.78;75.60;100103.81;6280875;22;20411;-74
2022/05/25 09:54:10;;;;;;;7.43;1.05;;;;;;;15.01;74.57;100084.72;6253447;22;20419;-74
2022/05/25 09:56:39;;;;;;;7.07;1.08;;;;;;;14.89;77.03;100092.63;6282106;22;20007;-74
2022/05/25 09:59:10;;;;;;;9.55;1.00;;;;;;;14.65;78.61;100119.16;6280859;22;20073;-74
2022/05/25 10:01:48;;;;;;;2.65;1.08;;;;;;;14.24;80.16;100099.75;6280932;22;20411;-74
2022/05/25 10:04:32;;;;;;;5.57;0.98;;;;;;;14.14;81.87;100112.50;6253143;22;20007;-74
2022/05/25 10:06:58;;;;;;;5.63;0.70;;;;;;;14.18;81.70;100100.91;6281296;22;20323;-74
2022/05/25 10:09:28;;;;;;;5.97;1.20;;;;;;;14.31;82.56;100094.69;6253074;22;20031;-75
2022/05/25 10:11:57;;;;;;;8.30;1.02;;;;;;;14.60;80.84;100090.88;6282490;22;20007;-74
2022/05/25 10:14:33;;;;;;;8.60;1.15;;;;;;;14.64;80.91;100102.97;6251917;22;20022;-74
2022/05/25 10:17:34;;;;;;;3.20;0.75;;;;;;;14.61;81.47;100092.53;6253897;22;20086;-73
2022/05/25 10:20:00;;;;;;;4.22;1.20;;;;;;;14.30;82.05;100098.53;6270361;22;20533;-73
2022/05/25 10:22:35;;;;;;;4.20;0.80;;;;;;;14.33;82.88;100106.19;6253857;22;20006;-74
2022/05/25 10:25:38;;;;;;;2.80;0.82;;;;;;;14.19;82.20;100099.81;6254868;22;20015;-74
2022/05/25 10:28:18;;;;;;;3.58;1.00;;;;;;;14.47;81.01;100115.31;6282612;22;20413;-74
2022/05/25 10:36:47;;;;;;;4.38;0.75;;;;;;;14.55;79.72;100104.75;6282835;22;20007;-74
2022/05/25 10:39:18;;;;;;;6.20;0.90;;;;;;;14.35;80.73;100098.44;6282026;22;20070;-74
2022/05/25 10:41:45;;;;;;;2.67;0.68;;;;;;;14.66;79.09;100103.50;6254272;22;20014;-74
2022/05/25 10:44:22;;;;;;;8.20;1.13;;;;;;;14.94;77.83;100117.31;6254788;22;20547;-73
2022/05/25 10:46:57;;;;;;;5.55;1.17;;;;;;;15.00;77.77;100111.41;6282812;22;20003;-74
2022/05/25 10:49:38;;;;;;;2.85;0.57;;;;;;;14.90;78.15;100110.78;6280449;22;20007;-73
2022/05/25 10:52:18;;;;;;;7.40;1.17;;;;;;;14.80;78.57;100101.56;6280926;22;19999;-74
2022/05/25 10:54:51;;;;;;;7.78;1.65;;;;;;;14.91;77.37;100106.91;6280935;22;20031;-75
2022/05/25 10:57:48;;;;;;;8.32;0.90;;;;;;;14.95;76.50;100118.94;6253968;22;20087;-74
2022/05/25 11:00:36;;;;;;;4.10;0.88;;;;;;;14.72;78.50;100116.03;6254397;22;20087;-75
2022/05/25 11:03:23;;;;;;;7.03;1.20;;;;;;;14.31;80.47;100105.69;6279786;22;20382;-74
2022/05/25 11:05:57;;;;;;;5.28;1.02;;;;;;;14.14;81.87;100109.75;6281013;22;20077;-73
2022/05/25 11:08:41;;;;;;;4.95;1.30;;;;;;;14.14;80.85;100112.50;6279392;22;20015;-74
2022/05/25 11:11:21;;;;;;;9.88;1.38;;;;;;;14.09;81.64;100115.34;6254454;22;20002;-73
2022/05/25 11:14:01;;;;;;;2.63;0.88;;;;;;;14.21;82.53;100116.84;6280877;22;20000;-74
2022/05/25 11:16:38;;;;;;;2.35;0.98;;;;;;;14.26;82.71;100133.25;6255114;22;20004;-73
2022/05/25 11:19:39;;;;;;;4.18;1.27;;;;;;;14.14;83.61;100123.50;6281836;22;20086;-74
2022/05/25 11:22:20;;;;;;;6.75;0.98;;;;;;;14.22;83.98;100132.19;6219153;22;20007;-73
2022/05/25 11:24:48;;;;;;;4.68;0.98;;;;;;;14.06;85.88;100115.09;6255758;22;20000;-73
2022/05/25 11:27:34;;;;;;;4.38;0.85;;;;;;;13.89;86.82;100115.63;6255325;22;20007;-74
2022/05/25 11:30:08;;;;;;;5.10;1.15;;;;;;;13.64;88.98;100114.84;6279606;22;20031;-72
2022/05/25 11:32:51;;;;;;;7.40;0.80;;;;;;;13.58;90.15;100110.50;6281464;22;20011;-74
2022/05/25 11:35:26;;;;;;;3.90;1.00;;;;;;;13.52;90.58;100118.03;6250541;22;20007;-73
2022/05/25 11:38:01;;;;;;;6.68;1.17;;;;;;;13.29;91.61;100111.38;6251091;22;20012;-73
2022/05/25 11:40:41;;;;;;;4.35;0.90;;;;;;;13.20;93.75;100113.13;6278285;22;20010;-73
2022/05/25 11:43:32;;;;;;;10.05;1.60;;;;;;;13.18;94.69;100104.38;6250423;22;20028;-72
2022/05/25 11:46:12;;;;;;;9.38;1.60;;;;;;;13.16;94.45;100125.81;6279300;22;19984;-73
2022/05/25 11:49:23;;;;;;;6.82;1.33;;;;;;;13.28;95.01;100113.28;6250983;22;20086;-72
2022/05/25 11:52:10;;;;;;;11.30;2.75;;;;;;;13.58;94.94;100129.75;6279907;22;20003;-73
2022/05/25 11:54:57;;;;;;;9.05;1.50;;;;;;;13.75;93.99;100124.59;6278025;22;20000;-72
2022/05/25 11:57:31;;;;;;;5.82;1.42;;;;;;;13.88;93.07;100130.47;6249613;22;20014;-74
2022/05/25 12:00:15;;;;;;;12.43;1.70;;;;;;;14.12;93.07;100125.75;6278947;22;20003;-74
2022/05/25 12:03:17;;;;;;;15.82;2.42;;;;;;;14.36;92.09;100124.84;6278887;22;20000;-73
2022/05/25 12:06:06;;;;;;;9.70;1.45;;;;;;;14.28;90.86;100126.34;6252982;22;20015;-74
2022/05/25 12:09:04;;;;;;;8.20;1.85;;;;;;;14.11;90.98;100124.09;6254725;22;20011;-74
2022/05/25 12:11:32;;;;;;;6.45;1.80;;;;;;;14.21;92.03;100127.84;6254432;22;20066;-74
2022/05/25 12:14:13;;;;;;;8.85;1.60;;;;;;;14.26;91.12;100114.81;6253614;22;20102;-75
2022/05/25 12:16:43;;;;;;;6.45;1.50;;;;;;;14.27;91.80;100121.94;6255207;22;20087;-73
2022/05/25 12:19:17;;;;;;;12.32;2.50;;;;;;;14.47;92.44;100136.50;6281116;22;20001;-74
2022/05/25 12:21:49;;;;;;;7.22;1.83;;;;;;;14.36;90.89;100135.84;6255283;22;20605;-73
2022/05/25 12:24:22;;;;;;;5.50;1.83;;;;;;;14.46;91.53;100121.94;6278504;22;20026;-72
2022/05/25 12:26:48;;;;;;;12.18;2.20;;;;;;;14.60;89.73;100123.91;6251602;22;20003;-73
2022/05/25 12:29:16;;;;;;;11.23;2.47;;;;;;;14.65;90.58;100135.69;6252896;22;20003;-73
2022/05/25 12:31:44;;;;;;;8.15;2.13;;;;;;;14.84;89.87;100132.88;6281051;22;20476;-73
2022/05/25 12:34:15;;;;;;;13.13;2.40;;;;;;;14.93;89.42;100137.72;6280628;22;20004;-73
2022/05/25 12:36:42;;;;;;;9.50;1.85;;;;;;;14.72;89.37;100137.22;6281429;22;20003;-73
2022/05/25 12:39:11;;;;;;;8.25;1.92;;;;;;;14.63;90.41;100137.09;6254958;22;20008;-74
2022/05/25 12:41:43;;;;;;;10.10;2.30;;;;;;;14.67;89.56;100140.88;6255206;22;20007;-73
2022/05/25 12:50:01;;;;;;;4.00;1.55;;;;;;;15.50;85.50;100130.00;6279488;22;20283;-73
2022/05/25 12:52:27;;;;;;;7.03;1.15;;;;;;;15.71;86.12;100129.59;6230487;22;20031;-72
2022/05/25 12:54:59;;;;;;;5.82;1.13;;;;;;;16.25;81.48;100126.25;6285828;22;20008;-75
2022/05/25 12:57:38;;;;;;;6.53;1.77;;;;;;;16.12;80.55;100147.22;6284002;22;19999;-71
2022/05/25 13:00:53;;;;;;;6.30;1.00;;;;;;;16.38;79.83;100136.41;6291099;22;20004;-71
2022/05/25 13:03:32;;;;;;;3.88;0.93;;;;;;;18.38;72.90;100143.97;6149459;22;20002;-73
2022/05/25 13:05:59;;;;;;;4.20;0.73;;;;;;;19.25;69.92;100143.06;6254554;22;20012;-74
2022/05/25 13:08:49;;;;;;;2.25;0.50;;;;;;;20.66;65.13;100151.34;6282366;22;20430;-74
2022/05/25 13:11:36;;;;;;;2.03;0.68;;;;;;;20.73;63.26;100149.69;6282004;22;20061;-74
2022/05/25 13:14:01;;;;;;;1.52;0.57;;;;;;;20.63;61.60;100150.03;6254332;22;20062;-75
2022/05/25 13:16:42;;;;;;;3.70;0.40;;;;;;;20.01;62.12;100163.59;6251960;22;20316;-74
2022/05/25 13:19:32;;;;;;;1.30;0.40;;;;;;;20.00;64.27;100161.97;6253773;22;20007;-74
2022/05/25 13:22:03;;;;;;;0.82;0.43;;;;;;;20.10;62.59;100154.41;6252719;22;20003;-75
2022/05/25 13:24:55;;;;;;;3.53;0.75;;;;;;;18.73;66.86;100159.78;6254314;22;20023;-74
2022/05/25 13:27:35;;;;;;;0.63;0.30;;;;;;;17.04;71.86;100158.84;6255580;22;20008;-74
2022/05/25 13:30:13;;;;;;;1.35;0.60;;;;;;;16.23;74.49;100152.19;6281937;22;20078;-73
2022/05/25 13:32:50;;;;;;;5.32;0.57;;;;;;;16.00;75.79;100142.25;6254575;22;20003;-74
2022/05/25 13:35:18;;;;;;;2.60;0.60;;;;;;;16.56;73.60;100152.00;6253282;22;20012;-75
2022/05/25 13:37:45;;;;;;;3.15;0.77;;;;;;;17.22;69.17;100151.47;6281258;22;20063;-74
2022/05/25 13:40:11;;;;;;;6.18;1.48;;;;;;;17.45;67.14;100159.72;6255779;22;20018;-73
2022/05/25 13:42:41;;;;;;;3.20;0.70;;;;;;;17.32;67.21;100152.31;6280977;22;20003;-73
2022/05/25 13:45:21;;;;;;;2.60;0.70;;;;;;;17.13;68.60;100175.47;6281338;22;20011;-75
2022/05/25 13:47:59;;;;;;;3.20;0.90;;;;;;;17.69;68.14;100172.31;6281393;22;20003;-75
2022/05/25 13:50:45;;;;;;;5.50;0.98;;;;;;;18.04;65.13;100164.16;6255412;22;20004;-73